createdAt,value
2022-12-19T00:03:26.689Z,30.35
2022-12-19T00:08:30.364Z,32.25
2022-12-19T00:13:40.756Z,30.85
2022-12-19T00:18:47.689Z,36.88
2022-12-19T00:23:52.282Z,30.27
2022-12-19T00:28:58.271Z,28.77
2022-12-19T00:34:03.545Z,30.15
2022-12-19T00:39:08.598Z,25.02
2022-12-19T00:44:17.658Z,29.52
2022-12-19T00:49:22.855Z,29.90
2022-12-19T00:54:26.966Z,28.63
2022-12-19T00:59:30.757Z,52.92
2022-12-19T01:04:41.125Z,31.17
2022-12-19T01:09:49.088Z,24.90
2022-12-19T01:14:58.770Z,29.85
2022-12-19T01:20:10.900Z,30.88
2022-12-19T01:25:15.535Z,29.40
2022-12-19T01:30:19.053Z,30.63
2022-12-19T01:35:25.089Z,31.38
2022-12-19T01:40:28.817Z,37.58
2022-12-19T01:45:35.423Z,29.02
2022-12-19T01:51:01.345Z,28.50
2022-12-19T01:56:10.758Z,30.15
2022-12-19T02:01:15.006Z,28.67
2022-12-19T02:06:20.065Z,29.50
2022-12-19T02:11:23.642Z,27.38
2022-12-19T02:16:38.427Z,30.05
2022-12-19T02:21:54.731Z,25.38
2022-12-19T02:27:06.312Z,25.45
2022-12-19T02:32:19.477Z,25.88
2022-12-19T02:37:29.198Z,29.90
2022-12-19T02:42:41.299Z,26.67
2022-12-19T02:47:46.718Z,24.00
2022-12-19T02:52:50.969Z,21.63
2022-12-19T02:58:09.549Z,26.38
2022-12-19T03:03:22.773Z,24.98
2022-12-19T03:08:31.564Z,23.80
2022-12-19T03:13:39.651Z,24.92
2022-12-19T03:23:50.553Z,23.67
2022-12-19T03:28:57.223Z,25.65
2022-12-19T03:34:04.707Z,23.48
2022-12-19T03:39:11.225Z,23.80
2022-12-19T03:44:17.581Z,22.88
2022-12-19T03:49:22.742Z,25.85
2022-12-19T03:54:29.382Z,25.27
2022-12-19T03:59:36.512Z,23.73
2022-12-19T04:04:44.901Z,24.70
2022-12-19T04:09:50.481Z,24.50
2022-12-19T04:14:56.080Z,25.17
2022-12-19T04:20:04.546Z,28.10
2022-12-19T04:25:11.297Z,25.67
2022-12-19T04:30:17.188Z,26.27
2022-12-19T04:35:22.064Z,27.60
2022-12-19T04:40:25.624Z,28.13
2022-12-19T04:45:29.081Z,27.10
2022-12-19T04:50:35.583Z,23.58
2022-12-19T04:55:40.169Z,25.27
2022-12-19T05:00:43.593Z,21.15
2022-12-19T05:05:48.426Z,23.42
2022-12-19T05:10:51.839Z,26.98
2022-12-19T05:15:58.746Z,27.83
2022-12-19T05:21:04.186Z,25.45
2022-12-19T05:26:07.957Z,25.08
2022-12-19T05:31:14.680Z,25.45
2022-12-19T05:36:20.242Z,28.92
2022-12-19T05:41:23.806Z,22.90
2022-12-19T05:46:27.529Z,25.30
2022-12-19T05:51:32.739Z,24.92
2022-12-19T05:56:36.542Z,25.42
2022-12-19T06:01:40.776Z,24.52
2022-12-19T06:06:45.760Z,28.33
2022-12-19T06:11:49.256Z,26.55
2022-12-19T06:16:52.806Z,28.40
2022-12-19T06:21:57.676Z,31.33
2022-12-19T06:27:01.152Z,33.17
2022-12-19T06:32:04.647Z,36.47
2022-12-19T06:37:09.476Z,34.25
2022-12-19T06:42:24.787Z,31.52
2022-12-19T06:47:28.416Z,42.97
2022-12-19T06:52:33.279Z,65.72
2022-12-19T06:57:36.860Z,44.30
2022-12-19T07:02:43.497Z,35.45
2022-12-19T07:07:48.618Z,30.00
2022-12-19T07:12:52.058Z,67.43
2022-12-19T07:17:55.710Z,46.80
2022-12-19T07:23:00.639Z,38.22
2022-12-19T07:28:04.165Z,47.08
2022-12-19T07:33:10.926Z,43.50
2022-12-19T07:38:16.461Z,55.00
2022-12-19T07:43:19.945Z,32.88
2022-12-19T07:48:24.065Z,36.35
2022-12-19T07:53:29.078Z,48.63
2022-12-19T07:58:32.747Z,36.42
2022-12-19T08:03:36.249Z,56.83
2022-12-19T08:08:41.365Z,39.78
2022-12-19T08:13:46.896Z,48.58
2022-12-19T08:18:50.785Z,35.47
2022-12-19T08:23:55.945Z,34.33
2022-12-19T08:28:59.901Z,43.50
2022-12-19T08:34:03.786Z,40.30
2022-12-19T08:39:08.803Z,36.83
2022-12-19T08:44:13.022Z,36.47
2022-12-19T08:49:16.698Z,38.78
2022-12-19T08:54:21.585Z,34.95
2022-12-19T08:59:30.947Z,34.75
2022-12-19T09:05:57.616Z,33.17
2022-12-19T09:10:00.375Z,36.60
2022-12-19T09:15:03.941Z,34.95
2022-12-19T09:20:08.558Z,37.83
2022-12-19T09:25:13.589Z,34.95
2022-12-19T09:30:17.909Z,30.85
2022-12-19T09:42:47.922Z,42.35
2022-12-19T09:47:51.477Z,27.83
2022-12-19T09:53:01.690Z,33.63
2022-12-19T09:58:12.139Z,37.75
2022-12-19T10:03:23.093Z,57.95
2022-12-19T10:08:31.756Z,74.85
2022-12-19T10:13:58.392Z,49.47
2022-12-19T10:19:04.385Z,36.30
2022-12-19T10:24:34.748Z,36.60
2022-12-19T10:30:03.493Z,34.58
2022-12-19T10:35:14.815Z,35.20
2022-12-19T10:40:27.992Z,36.42
2022-12-19T10:45:38.826Z,30.73
2022-12-19T10:50:42.787Z,30.75
2022-12-19T10:55:47.914Z,28.60
2022-12-19T11:01:04.753Z,31.55
2022-12-19T11:06:41.158Z,32.85
2022-12-19T11:15:42.924Z,26.02
2022-12-19T11:25:06.895Z,31.63
2022-12-19T11:30:37.373Z,35.70
2022-12-19T11:33:54.343Z,32.33
2022-12-19T11:38:58.678Z,31.65
2022-12-19T11:44:08.485Z,33.40
2022-12-19T11:49:24.663Z,31.73
2022-12-19T11:54:34.834Z,32.20
2022-12-19T11:59:41.365Z,37.20
2022-12-19T12:05:24.688Z,33.47
2022-12-19T12:14:22.611Z,34.83
2022-12-19T12:25:20.085Z,34.17
2022-12-19T12:31:23.086Z,35.08
2022-12-19T12:31:57.584Z,31.92
2022-12-19T12:35:33.125Z,34.08
2022-12-19T12:38:31.682Z,38.42
2022-12-19T12:44:06.095Z,45.95
2022-12-19T12:49:29.864Z,62.38
2022-12-19T12:54:37.620Z,44.00
2022-12-19T12:59:46.530Z,40.42
2022-12-19T13:04:58.882Z,48.75
2022-12-19T13:10:20.131Z,47.83
2022-12-19T13:15:43.284Z,44.65
2022-12-19T13:20:49.047Z,44.42
2022-12-19T13:25:55.768Z,45.83
2022-12-19T13:31:21.367Z,43.92
2022-12-19T13:39:54.507Z,45.78
2022-12-19T13:42:36.033Z,44.83
2022-12-19T13:47:43.548Z,46.88
2022-12-19T13:52:50.751Z,44.63
2022-12-19T13:57:56.744Z,50.45
2022-12-19T14:03:01.623Z,45.92
2022-12-19T14:08:19.334Z,51.80
2022-12-19T14:13:58.870Z,57.78
2022-12-19T14:19:34.103Z,51.17
2022-12-19T14:24:37.621Z,52.20
2022-12-19T14:30:27.579Z,51.13
2022-12-19T14:36:07.515Z,53.75
2022-12-19T14:53:52.526Z,57.05
2022-12-19T14:54:25.927Z,58.08
2022-12-19T14:58:54.020Z,58.72
2022-12-19T15:04:48.667Z,58.60
2022-12-19T15:11:05.089Z,64.00
2022-12-19T15:14:59.312Z,65.63
2022-12-19T15:26:02.068Z,66.32
2022-12-19T15:30:55.285Z,72.88
2022-12-19T15:36:00.301Z,66.47
2022-12-19T15:41:08.853Z,66.43
2022-12-19T15:46:15.940Z,67.55
2022-12-19T15:51:21.069Z,71.57
2022-12-19T15:56:35.492Z,62.80
2022-12-19T16:01:48.054Z,67.38
2022-12-19T16:07:13.405Z,70.75
2022-12-19T16:12:19.464Z,72.85
2022-12-19T16:17:34.053Z,94.18
2022-12-19T16:22:41.780Z,72.90
2022-12-19T16:27:55.252Z,80.50
2022-12-19T16:33:00.135Z,100.38
2022-12-19T16:43:29.084Z,84.13
2022-12-19T16:54:44.852Z,68.40
2022-12-19T17:05:56.013Z,61.92
2022-12-19T17:10:59.807Z,94.40
2022-12-19T17:16:05.701Z,80.00
2022-12-19T17:26:31.416Z,46.05
2022-12-19T17:31:39.244Z,43.63
2022-12-19T17:36:43.874Z,59.50
2022-12-19T17:52:58.353Z,30.10
2022-12-19T17:58:01.822Z,33.38
2022-12-19T18:03:17.307Z,43.97
2022-12-19T18:13:34.284Z,37.97
2022-12-19T18:18:38.226Z,40.25
2022-12-19T18:23:45.927Z,39.30
2022-12-19T18:28:50.935Z,46.17
2022-12-19T18:34:02.137Z,39.90
2022-12-19T18:39:21.694Z,36.78
2022-12-19T18:44:33.917Z,25.58
2022-12-19T18:54:39.523Z,37.70
2022-12-19T18:59:47.687Z,43.72
2022-12-19T19:10:37.695Z,37.40
2022-12-19T19:16:03.887Z,31.73
2022-12-19T19:26:13.194Z,35.53
2022-12-19T19:31:36.820Z,34.55
2022-12-19T19:36:43.559Z,36.33
2022-12-19T19:46:57.640Z,28.70
2022-12-19T20:03:22.467Z,19.08
2022-12-19T20:08:27.279Z,19.95
2022-12-19T20:13:31.478Z,24.27
2022-12-19T20:18:37.438Z,24.08
2022-12-19T20:23:41.860Z,28.83
2022-12-19T20:28:49.590Z,24.20
2022-12-19T20:33:57.051Z,30.07
2022-12-19T20:39:00.772Z,23.52
2022-12-19T20:44:04.389Z,32.17
2022-12-19T20:49:09.245Z,31.70
2022-12-19T20:54:13.286Z,28.75
2022-12-19T20:59:17.166Z,27.70
2022-12-19T21:04:22.419Z,27.63
2022-12-19T21:09:26.362Z,35.40
2022-12-19T21:14:30.213Z,27.45
2022-12-19T21:19:35.081Z,25.83
2022-12-19T21:24:38.668Z,28.58
2022-12-19T21:29:42.210Z,26.08
2022-12-19T21:34:47.026Z,21.92
2022-12-19T21:39:50.701Z,26.90
2022-12-19T21:44:54.123Z,26.77
2022-12-19T21:49:58.937Z,25.50
2022-12-19T21:55:02.427Z,25.73
2022-12-19T22:00:07.384Z,24.83
2022-12-19T22:05:12.349Z,32.22
2022-12-19T22:10:15.794Z,27.02
2022-12-19T22:15:19.264Z,28.10
2022-12-19T22:20:24.095Z,25.65
2022-12-19T22:25:27.560Z,20.98
2022-12-19T22:30:34.300Z,20.77
2022-12-19T22:35:40.461Z,19.52
2022-12-19T22:40:44.154Z,22.02
2022-12-19T22:45:47.756Z,22.67
2022-12-19T22:50:52.653Z,20.35
2022-12-19T22:55:56.102Z,23.40
2022-12-19T23:00:59.578Z,40.05
2022-12-19T23:06:04.442Z,18.38
2022-12-19T23:11:10.937Z,22.67
2022-12-19T23:16:15.066Z,25.35
2022-12-19T23:21:22.174Z,28.40
2022-12-19T23:26:27.363Z,26.42
2022-12-19T23:31:31.316Z,19.73
2022-12-19T23:37:09.722Z,25.50
2022-12-19T23:41:59.886Z,18.88
2022-12-19T23:47:04.283Z,22.05
2022-12-19T23:52:09.241Z,20.27
2022-12-19T23:57:12.684Z,20.38
